Terminal Aerodrome Forecast
Issued by NWS Portland, OR

Home | Current Version | Previous Version | Text Only | Print | Product List | Glossary On
Versions: 1 2 3 4 5 6 7 8 9 10 11 12 13 14 15 16 17 18 19
000
FTUS46 KPQR 232201 AAC
TAFTTD
TAF AMD
KTTD 232201Z 2322/2418 19009KT P6SM -SN SCT025 BKN035 OVC050
     FM240200 15009KT 5SM -SN SCT015 BKN025 OVC040
     FM240400 15010KT 1SM -SN BKN010 OVC020
     FM241000 20012KT P6SM -RASN BKN015 BKN025 OVC040
     FM241300 24012KT P6SM -RA SCT015 BKN025 OVC040=

USA.gov is the U.S. government's official web portal to all federal, state and local government web resources and services.